sensor_id;sensor_type;location;lat;lon;timestamp;P1;durP1;ratioP1;P2;durP2;ratioP2
68803;SDS011;55787;52.678;13.314;2022-07-23T00:01:23;13.40;;;6.13;;
68803;SDS011;55787;52.678;13.314;2022-07-23T00:03:53;13.95;;;6.32;;
68803;SDS011;55787;52.678;13.314;2022-07-23T00:06:21;11.23;;;5.90;;
68803;SDS011;55787;52.678;13.314;2022-07-23T00:08:48;13.23;;;6.35;;
68803;SDS011;55787;52.678;13.314;2022-07-23T00:11:14;13.50;;;6.43;;
68803;SDS011;55787;52.678;13.314;2022-07-23T00:13:41;13.18;;;6.13;;
68803;SDS011;55787;52.678;13.314;2022-07-23T00:16:07;13.85;;;6.38;;
68803;SDS011;55787;52.678;13.314;2022-07-23T00:18:34;12.60;;;6.03;;
68803;SDS011;55787;52.678;13.314;2022-07-23T00:21:00;12.77;;;6.07;;
68803;SDS011;55787;52.678;13.314;2022-07-23T00:23:27;12.57;;;6.00;;
68803;SDS011;55787;52.678;13.314;2022-07-23T00:25:55;13.32;;;7.05;;
68803;SDS011;55787;52.678;13.314;2022-07-23T00:28:21;14.23;;;6.20;;
68803;SDS011;55787;52.678;13.314;2022-07-23T00:30:48;12.65;;;6.25;;
68803;SDS011;55787;52.678;13.314;2022-07-23T00:33:14;13.18;;;6.00;;
68803;SDS011;55787;52.678;13.314;2022-07-23T00:35:42;12.35;;;6.10;;
68803;SDS011;55787;52.678;13.314;2022-07-23T00:38:09;12.27;;;6.10;;
68803;SDS011;55787;52.678;13.314;2022-07-23T00:40:36;12.38;;;6.32;;
68803;SDS011;55787;52.678;13.314;2022-07-23T00:43:04;14.55;;;6.53;;
68803;SDS011;55787;52.678;13.314;2022-07-23T00:45:31;12.73;;;6.30;;
68803;SDS011;55787;52.678;13.314;2022-07-23T00:47:58;13.23;;;6.20;;
68803;SDS011;55787;52.678;13.314;2022-07-23T00:50:25;14.07;;;6.88;;
68803;SDS011;55787;52.678;13.314;2022-07-23T00:52:52;14.70;;;7.03;;
68803;SDS011;55787;52.678;13.314;2022-07-23T00:55:19;12.95;;;6.25;;
68803;SDS011;55787;52.678;13.314;2022-07-23T00:57:45;14.57;;;6.78;;
68803;SDS011;55787;52.678;13.314;2022-07-23T01:00:13;14.05;;;6.75;;
68803;SDS011;55787;52.678;13.314;2022-07-23T01:02:41;12.43;;;6.60;;
68803;SDS011;55787;52.678;13.314;2022-07-23T01:05:08;13.48;;;6.78;;
68803;SDS011;55787;52.678;13.314;2022-07-23T01:07:35;13.90;;;6.93;;
68803;SDS011;55787;52.678;13.314;2022-07-23T01:10:02;14.10;;;6.80;;
68803;SDS011;55787;52.678;13.314;2022-07-23T01:12:29;13.63;;;6.85;;
68803;SDS011;55787;52.678;13.314;2022-07-23T01:14:59;15.18;;;6.85;;
68803;SDS011;55787;52.678;13.314;2022-07-23T01:17:26;13.18;;;6.82;;
68803;SDS011;55787;52.678;13.314;2022-07-23T01:19:54;15.45;;;7.25;;
68803;SDS011;55787;52.678;13.314;2022-07-23T01:22:20;16.67;;;7.97;;
68803;SDS011;55787;52.678;13.314;2022-07-23T01:24:47;14.45;;;7.63;;
68803;SDS011;55787;52.678;13.314;2022-07-23T01:27:14;14.85;;;7.63;;
68803;SDS011;55787;52.678;13.314;2022-07-23T01:29:40;15.63;;;7.32;;
68803;SDS011;55787;52.678;13.314;2022-07-23T01:32:07;14.55;;;7.38;;
68803;SDS011;55787;52.678;13.314;2022-07-23T01:34:33;16.20;;;7.80;;
68803;SDS011;55787;52.678;13.314;2022-07-23T01:37:00;15.68;;;7.78;;
68803;SDS011;55787;52.678;13.314;2022-07-23T01:39:26;16.10;;;7.53;;
68803;SDS011;55787;52.678;13.314;2022-07-23T01:41:53;16.58;;;7.90;;
68803;SDS011;55787;52.678;13.314;2022-07-23T01:44:19;15.00;;;7.57;;
68803;SDS011;55787;52.678;13.314;2022-07-23T01:46:46;14.73;;;7.03;;
68803;SDS011;55787;52.678;13.314;2022-07-23T01:49:12;16.42;;;8.45;;
68803;SDS011;55787;52.678;13.314;2022-07-23T01:51:39;16.52;;;7.20;;
68803;SDS011;55787;52.678;13.314;2022-07-23T01:54:29;14.93;;;7.15;;
68803;SDS011;55787;52.678;13.314;2022-07-23T01:56:57;14.27;;;7.63;;
68803;SDS011;55787;52.678;13.314;2022-07-23T01:59:24;15.18;;;6.95;;
68803;SDS011;55787;52.678;13.314;2022-07-23T02:01:51;14.30;;;7.30;;
68803;SDS011;55787;52.678;13.314;2022-07-23T02:04:22;16.85;;;7.75;;
68803;SDS011;55787;52.678;13.314;2022-07-23T02:06:49;15.30;;;6.80;;
68803;SDS011;55787;52.678;13.314;2022-07-23T02:09:15;13.55;;;6.63;;
68803;SDS011;55787;52.678;13.314;2022-07-23T02:11:42;15.95;;;6.75;;
68803;SDS011;55787;52.678;13.314;2022-07-23T02:14:09;14.90;;;7.13;;
68803;SDS011;55787;52.678;13.314;2022-07-23T02:16:36;12.98;;;5.88;;
68803;SDS011;55787;52.678;13.314;2022-07-23T02:19:03;11.68;;;5.85;;
68803;SDS011;55787;52.678;13.314;2022-07-23T02:21:30;17.80;;;5.85;;
68803;SDS011;55787;52.678;13.314;2022-07-23T02:23:57;15.15;;;6.28;;
68803;SDS011;55787;52.678;13.314;2022-07-23T02:26:24;13.30;;;6.50;;
68803;SDS011;55787;52.678;13.314;2022-07-23T02:28:50;12.88;;;5.50;;
68803;SDS011;55787;52.678;13.314;2022-07-23T02:31:19;12.35;;;5.25;;
68803;SDS011;55787;52.678;13.314;2022-07-23T02:33:46;11.77;;;5.22;;
68803;SDS011;55787;52.678;13.314;2022-07-23T02:36:12;13.85;;;5.20;;
68803;SDS011;55787;52.678;13.314;2022-07-23T02:38:39;11.60;;;5.03;;
68803;SDS011;55787;52.678;13.314;2022-07-23T02:41:05;11.75;;;5.10;;
68803;SDS011;55787;52.678;13.314;2022-07-23T02:43:31;11.23;;;4.95;;
68803;SDS011;55787;52.678;13.314;2022-07-23T02:45:58;11.52;;;4.50;;
68803;SDS011;55787;52.678;13.314;2022-07-23T02:48:24;12.73;;;4.85;;
68803;SDS011;55787;52.678;13.314;2022-07-23T02:50:51;11.85;;;5.05;;
68803;SDS011;55787;52.678;13.314;2022-07-23T02:53:18;10.63;;;4.65;;
68803;SDS011;55787;52.678;13.314;2022-07-23T02:55:45;12.02;;;4.70;;
68803;SDS011;55787;52.678;13.314;2022-07-23T02:58:11;12.98;;;4.45;;
68803;SDS011;55787;52.678;13.314;2022-07-23T03:00:38;11.68;;;4.55;;
68803;SDS011;55787;52.678;13.314;2022-07-23T03:03:04;12.93;;;4.43;;
68803;SDS011;55787;52.678;13.314;2022-07-23T03:05:30;10.60;;;4.50;;
68803;SDS011;55787;52.678;13.314;2022-07-23T03:07:57;11.43;;;4.35;;
68803;SDS011;55787;52.678;13.314;2022-07-23T03:10:23;13.90;;;4.45;;
68803;SDS011;55787;52.678;13.314;2022-07-23T03:12:51;11.10;;;4.32;;
68803;SDS011;55787;52.678;13.314;2022-07-23T03:15:17;12.18;;;4.55;;
68803;SDS011;55787;52.678;13.314;2022-07-23T03:17:44;11.40;;;4.43;;
68803;SDS011;55787;52.678;13.314;2022-07-23T03:20:10;12.60;;;4.43;;
68803;SDS011;55787;52.678;13.314;2022-07-23T03:22:37;11.05;;;4.07;;
68803;SDS011;55787;52.678;13.314;2022-07-23T03:25:03;10.88;;;4.28;;
68803;SDS011;55787;52.678;13.314;2022-07-23T03:27:31;12.55;;;4.18;;
68803;SDS011;55787;52.678;13.314;2022-07-23T03:29:58;11.70;;;4.07;;
68803;SDS011;55787;52.678;13.314;2022-07-23T03:32:26;13.63;;;3.93;;
68803;SDS011;55787;52.678;13.314;2022-07-23T03:34:53;10.85;;;3.70;;
68803;SDS011;55787;52.678;13.314;2022-07-23T03:37:20;13.88;;;4.30;;
68803;SDS011;55787;52.678;13.314;2022-07-23T03:39:47;9.95;;;3.75;;
68803;SDS011;55787;52.678;13.314;2022-07-23T03:42:14;8.52;;;3.58;;
68803;SDS011;55787;52.678;13.314;2022-07-23T03:44:40;12.13;;;3.22;;
68803;SDS011;55787;52.678;13.314;2022-07-23T03:47:07;9.68;;;3.00;;
68803;SDS011;55787;52.678;13.314;2022-07-23T03:49:33;9.48;;;3.00;;
68803;SDS011;55787;52.678;13.314;2022-07-23T03:52:00;9.65;;;3.00;;
68803;SDS011;55787;52.678;13.314;2022-07-23T03:54:27;11.35;;;3.08;;
68803;SDS011;55787;52.678;13.314;2022-07-23T03:56:54;10.00;;;2.92;;
68803;SDS011;55787;52.678;13.314;2022-07-23T03:59:20;8.88;;;3.13;;
68803;SDS011;55787;52.678;13.314;2022-07-23T04:01:49;10.43;;;2.70;;
68803;SDS011;55787;52.678;13.314;2022-07-23T04:04:16;8.52;;;2.60;;
68803;SDS011;55787;52.678;13.314;2022-07-23T04:06:43;8.18;;;2.60;;
68803;SDS011;55787;52.678;13.314;2022-07-23T04:09:09;8.77;;;2.90;;
68803;SDS011;55787;52.678;13.314;2022-07-23T04:11:35;9.52;;;2.45;;
68803;SDS011;55787;52.678;13.314;2022-07-23T04:14:02;7.88;;;2.60;;
68803;SDS011;55787;52.678;13.314;2022-07-23T04:16:29;8.23;;;2.80;;
68803;SDS011;55787;52.678;13.314;2022-07-23T04:18:57;8.43;;;2.53;;
68803;SDS011;55787;52.678;13.314;2022-07-23T04:21:24;8.90;;;2.65;;
68803;SDS011;55787;52.678;13.314;2022-07-23T04:23:51;9.73;;;2.58;;
68803;SDS011;55787;52.678;13.314;2022-07-23T04:26:17;8.23;;;2.88;;
68803;SDS011;55787;52.678;13.314;2022-07-23T04:28:44;10.63;;;3.10;;
68803;SDS011;55787;52.678;13.314;2022-07-23T04:31:10;12.35;;;3.50;;
68803;SDS011;55787;52.678;13.314;2022-07-23T04:33:37;9.27;;;3.47;;
68803;SDS011;55787;52.678;13.314;2022-07-23T04:36:03;9.82;;;3.45;;
68803;SDS011;55787;52.678;13.314;2022-07-23T04:38:30;10.38;;;3.40;;
68803;SDS011;55787;52.678;13.314;2022-07-23T04:40:58;9.45;;;3.47;;
68803;SDS011;55787;52.678;13.314;2022-07-23T04:43:25;8.98;;;3.10;;
68803;SDS011;55787;52.678;13.314;2022-07-23T04:45:51;11.00;;;3.25;;
68803;SDS011;55787;52.678;13.314;2022-07-23T04:48:18;9.68;;;3.40;;
68803;SDS011;55787;52.678;13.314;2022-07-23T04:50:45;8.68;;;3.30;;
68803;SDS011;55787;52.678;13.314;2022-07-23T04:53:12;10.50;;;3.75;;
68803;SDS011;55787;52.678;13.314;2022-07-23T04:55:39;10.23;;;3.95;;
68803;SDS011;55787;52.678;13.314;2022-07-23T04:58:05;10.85;;;3.40;;
68803;SDS011;55787;52.678;13.314;2022-07-23T05:00:32;11.80;;;4.13;;
68803;SDS011;55787;52.678;13.314;2022-07-23T05:02:59;11.95;;;3.90;;
68803;SDS011;55787;52.678;13.314;2022-07-23T05:05:25;13.80;;;4.15;;
68803;SDS011;55787;52.678;13.314;2022-07-23T05:07:52;11.02;;;3.92;;
68803;SDS011;55787;52.678;13.314;2022-07-23T05:10:18;11.38;;;4.32;;
68803;SDS011;55787;52.678;13.314;2022-07-23T05:12:45;12.23;;;4.40;;
68803;SDS011;55787;52.678;13.314;2022-07-23T05:15:11;10.90;;;4.10;;
68803;SDS011;55787;52.678;13.314;2022-07-23T05:17:38;13.60;;;4.00;;
68803;SDS011;55787;52.678;13.314;2022-07-23T05:20:04;11.13;;;4.25;;
68803;SDS011;55787;52.678;13.314;2022-07-23T05:22:31;12.25;;;4.30;;
68803;SDS011;55787;52.678;13.314;2022-07-23T05:24:58;11.98;;;4.35;;
68803;SDS011;55787;52.678;13.314;2022-07-23T05:27:24;12.18;;;4.60;;
68803;SDS011;55787;52.678;13.314;2022-07-23T05:29:51;12.85;;;5.00;;
68803;SDS011;55787;52.678;13.314;2022-07-23T05:32:17;11.88;;;4.40;;
68803;SDS011;55787;52.678;13.314;2022-07-23T05:34:44;10.70;;;4.07;;
68803;SDS011;55787;52.678;13.314;2022-07-23T05:37:10;13.55;;;4.75;;
68803;SDS011;55787;52.678;13.314;2022-07-23T05:39:36;10.90;;;3.90;;
68803;SDS011;55787;52.678;13.314;2022-07-23T05:42:03;11.23;;;4.00;;
68803;SDS011;55787;52.678;13.314;2022-07-23T05:44:29;12.40;;;4.03;;
68803;SDS011;55787;52.678;13.314;2022-07-23T05:47:00;9.43;;;3.70;;
68803;SDS011;55787;52.678;13.314;2022-07-23T05:49:27;10.05;;;3.60;;
68803;SDS011;55787;52.678;13.314;2022-07-23T05:51:54;11.30;;;3.95;;
68803;SDS011;55787;52.678;13.314;2022-07-23T05:54:20;11.38;;;4.22;;
68803;SDS011;55787;52.678;13.314;2022-07-23T05:56:46;9.93;;;3.83;;
68803;SDS011;55787;52.678;13.314;2022-07-23T05:59:13;11.15;;;4.00;;
68803;SDS011;55787;52.678;13.314;2022-07-23T06:01:41;9.68;;;4.18;;
68803;SDS011;55787;52.678;13.314;2022-07-23T06:04:08;10.82;;;3.80;;
68803;SDS011;55787;52.678;13.314;2022-07-23T06:06:34;10.55;;;3.72;;
68803;SDS011;55787;52.678;13.314;2022-07-23T06:09:01;12.98;;;4.07;;
68803;SDS011;55787;52.678;13.314;2022-07-23T06:11:28;11.35;;;3.85;;
68803;SDS011;55787;52.678;13.314;2022-07-23T06:13:55;11.85;;;4.53;;
68803;SDS011;55787;52.678;13.314;2022-07-23T06:16:22;11.85;;;4.20;;
68803;SDS011;55787;52.678;13.314;2022-07-23T06:18:48;13.70;;;4.60;;
68803;SDS011;55787;52.678;13.314;2022-07-23T06:21:15;11.43;;;4.40;;
68803;SDS011;55787;52.678;13.314;2022-07-23T06:24:01;11.80;;;5.18;;
68803;SDS011;55787;52.678;13.314;2022-07-23T06:26:28;11.02;;;4.55;;
68803;SDS011;55787;52.678;13.314;2022-07-23T06:28:54;10.25;;;5.00;;
68803;SDS011;55787;52.678;13.314;2022-07-23T06:31:21;10.50;;;4.40;;
68803;SDS011;55787;52.678;13.314;2022-07-23T06:33:47;11.38;;;4.20;;
68803;SDS011;55787;52.678;13.314;2022-07-23T06:36:14;10.57;;;4.50;;
68803;SDS011;55787;52.678;13.314;2022-07-23T06:38:40;12.77;;;4.53;;
68803;SDS011;55787;52.678;13.314;2022-07-23T06:41:07;11.23;;;4.20;;
68803;SDS011;55787;52.678;13.314;2022-07-23T06:43:33;10.02;;;4.03;;
68803;SDS011;55787;52.678;13.314;2022-07-23T06:45:59;10.02;;;3.63;;
68803;SDS011;55787;52.678;13.314;2022-07-23T06:48:26;10.35;;;4.25;;
68803;SDS011;55787;52.678;13.314;2022-07-23T06:50:54;10.00;;;4.10;;
68803;SDS011;55787;52.678;13.314;2022-07-23T06:53:21;10.73;;;3.85;;
68803;SDS011;55787;52.678;13.314;2022-07-23T06:55:47;11.32;;;3.83;;
68803;SDS011;55787;52.678;13.314;2022-07-23T06:58:14;11.90;;;4.30;;
68803;SDS011;55787;52.678;13.314;2022-07-23T07:00:40;9.98;;;3.85;;
68803;SDS011;55787;52.678;13.314;2022-07-23T07:03:07;11.20;;;4.22;;
68803;SDS011;55787;52.678;13.314;2022-07-23T07:05:33;12.63;;;4.32;;
68803;SDS011;55787;52.678;13.314;2022-07-23T07:08:00;10.70;;;4.28;;
68803;SDS011;55787;52.678;13.314;2022-07-23T07:10:27;12.77;;;4.82;;
68803;SDS011;55787;52.678;13.314;2022-07-23T07:12:53;11.80;;;4.55;;
68803;SDS011;55787;52.678;13.314;2022-07-23T07:15:19;11.00;;;4.72;;
68803;SDS011;55787;52.678;13.314;2022-07-23T07:17:46;13.50;;;4.90;;
68803;SDS011;55787;52.678;13.314;2022-07-23T07:20:13;9.23;;;4.00;;
68803;SDS011;55787;52.678;13.314;2022-07-23T07:22:40;11.68;;;4.80;;
68803;SDS011;55787;52.678;13.314;2022-07-23T07:25:06;10.73;;;4.57;;
68803;SDS011;55787;52.678;13.314;2022-07-23T07:27:34;9.68;;;4.07;;
68803;SDS011;55787;52.678;13.314;2022-07-23T07:30:01;9.68;;;4.03;;
68803;SDS011;55787;52.678;13.314;2022-07-23T07:32:29;9.85;;;3.97;;
68803;SDS011;55787;52.678;13.314;2022-07-23T07:35:15;9.85;;;4.00;;
68803;SDS011;55787;52.678;13.314;2022-07-23T07:37:42;9.67;;;4.17;;
68803;SDS011;55787;52.678;13.314;2022-07-23T07:40:08;9.13;;;3.40;;
68803;SDS011;55787;52.678;13.314;2022-07-23T07:42:43;9.63;;;3.70;;
68803;SDS011;55787;52.678;13.314;2022-07-23T07:45:13;9.18;;;3.00;;
68803;SDS011;55787;52.678;13.314;2022-07-23T07:47:41;8.32;;;3.10;;
68803;SDS011;55787;52.678;13.314;2022-07-23T07:50:08;9.13;;;2.90;;
68803;SDS011;55787;52.678;13.314;2022-07-23T07:52:37;9.07;;;3.13;;
68803;SDS011;55787;52.678;13.314;2022-07-23T07:55:04;8.70;;;3.20;;
68803;SDS011;55787;52.678;13.314;2022-07-23T07:57:33;8.93;;;3.15;;
68803;SDS011;55787;52.678;13.314;2022-07-23T07:59:59;8.15;;;3.50;;
68803;SDS011;55787;52.678;13.314;2022-07-23T08:05:12;7.05;;;2.42;;
68803;SDS011;55787;52.678;13.314;2022-07-23T08:07:40;8.93;;;2.47;;
68803;SDS011;55787;52.678;13.314;2022-07-23T08:10:07;8.70;;;2.80;;
68803;SDS011;55787;52.678;13.314;2022-07-23T08:12:42;10.32;;;3.25;;
68803;SDS011;55787;52.678;13.314;2022-07-23T08:15:13;6.40;;;2.30;;
68803;SDS011;55787;52.678;13.314;2022-07-23T08:17:42;7.25;;;2.80;;
68803;SDS011;55787;52.678;13.314;2022-07-23T08:20:10;7.95;;;2.92;;
68803;SDS011;55787;52.678;13.314;2022-07-23T08:22:48;7.93;;;2.60;;
68803;SDS011;55787;52.678;13.314;2022-07-23T08:25:19;6.68;;;2.70;;
68803;SDS011;55787;52.678;13.314;2022-07-23T08:27:48;6.97;;;2.50;;
68803;SDS011;55787;52.678;13.314;2022-07-23T08:30:15;6.97;;;2.30;;
68803;SDS011;55787;52.678;13.314;2022-07-23T08:35:16;7.90;;;2.60;;
68803;SDS011;55787;52.678;13.314;2022-07-23T08:37:43;8.43;;;2.47;;
68803;SDS011;55787;52.678;13.314;2022-07-23T08:40:09;7.77;;;2.40;;
68803;SDS011;55787;52.678;13.314;2022-07-23T08:42:36;9.23;;;2.63;;
68803;SDS011;55787;52.678;13.314;2022-07-23T08:45:04;6.93;;;2.67;;
68803;SDS011;55787;52.678;13.314;2022-07-23T08:47:33;8.10;;;2.70;;
68803;SDS011;55787;52.678;13.314;2022-07-23T08:50:00;7.10;;;2.50;;
68803;SDS011;55787;52.678;13.314;2022-07-23T08:52:27;8.43;;;2.97;;
68803;SDS011;55787;52.678;13.314;2022-07-23T08:54:56;10.35;;;2.63;;
68803;SDS011;55787;52.678;13.314;2022-07-23T08:57:23;8.18;;;2.78;;
68803;SDS011;55787;52.678;13.314;2022-07-23T08:59:49;8.82;;;2.70;;
68803;SDS011;55787;52.678;13.314;2022-07-23T09:02:16;7.57;;;2.33;;
68803;SDS011;55787;52.678;13.314;2022-07-23T09:04:42;8.13;;;2.23;;
68803;SDS011;55787;52.678;13.314;2022-07-23T09:07:09;8.40;;;2.40;;
68803;SDS011;55787;52.678;13.314;2022-07-23T09:09:35;6.32;;;2.72;;
68803;SDS011;55787;52.678;13.314;2022-07-23T09:12:06;7.20;;;2.75;;
68803;SDS011;55787;52.678;13.314;2022-07-23T09:14:40;6.60;;;2.40;;
68803;SDS011;55787;52.678;13.314;2022-07-23T09:17:12;6.97;;;2.53;;
68803;SDS011;55787;52.678;13.314;2022-07-23T09:19:41;7.32;;;2.80;;
68803;SDS011;55787;52.678;13.314;2022-07-23T09:22:21;9.50;;;3.00;;
68803;SDS011;55787;52.678;13.314;2022-07-23T09:25:06;7.47;;;3.15;;
68803;SDS011;55787;52.678;13.314;2022-07-23T09:30:25;7.63;;;2.80;;
68803;SDS011;55787;52.678;13.314;2022-07-23T09:35:48;6.63;;;2.80;;
68803;SDS011;55787;52.678;13.314;2022-07-23T09:38:15;8.25;;;3.30;;
68803;SDS011;55787;52.678;13.314;2022-07-23T09:40:43;8.60;;;3.42;;
68803;SDS011;55787;52.678;13.314;2022-07-23T09:43:10;8.77;;;3.53;;
68803;SDS011;55787;52.678;13.314;2022-07-23T09:45:37;7.22;;;2.72;;
68803;SDS011;55787;52.678;13.314;2022-07-23T09:48:12;8.38;;;3.00;;
68803;SDS011;55787;52.678;13.314;2022-07-23T09:50:43;7.70;;;2.70;;
68803;SDS011;55787;52.678;13.314;2022-07-23T09:53:25;7.88;;;2.95;;
68803;SDS011;55787;52.678;13.314;2022-07-23T09:55:52;10.43;;;3.00;;
68803;SDS011;55787;52.678;13.314;2022-07-23T09:58:24;9.73;;;2.85;;
68803;SDS011;55787;52.678;13.314;2022-07-23T10:00:52;8.70;;;3.10;;
68803;SDS011;55787;52.678;13.314;2022-07-23T10:03:20;10.00;;;3.53;;
68803;SDS011;55787;52.678;13.314;2022-07-23T10:05:46;11.93;;;3.88;;
68803;SDS011;55787;52.678;13.314;2022-07-23T10:08:14;7.97;;;2.87;;
68803;SDS011;55787;52.678;13.314;2022-07-23T10:10:45;9.80;;;3.35;;
68803;SDS011;55787;52.678;13.314;2022-07-23T10:13:13;10.05;;;4.03;;
68803;SDS011;55787;52.678;13.314;2022-07-23T10:15:47;9.00;;;3.17;;
68803;SDS011;55787;52.678;13.314;2022-07-23T10:18:13;7.20;;;2.72;;
68803;SDS011;55787;52.678;13.314;2022-07-23T10:20:40;11.90;;;3.42;;
68803;SDS011;55787;52.678;13.314;2022-07-23T10:25:51;10.77;;;3.80;;
68803;SDS011;55787;52.678;13.314;2022-07-23T10:31:28;8.02;;;3.10;;
68803;SDS011;55787;52.678;13.314;2022-07-23T10:37:14;9.18;;;3.45;;
68803;SDS011;55787;52.678;13.314;2022-07-23T10:39:47;10.98;;;3.58;;
68803;SDS011;55787;52.678;13.314;2022-07-23T10:42:14;7.57;;;3.20;;
68803;SDS011;55787;52.678;13.314;2022-07-23T10:44:48;8.93;;;3.58;;
68803;SDS011;55787;52.678;13.314;2022-07-23T10:47:48;8.43;;;3.90;;
68803;SDS011;55787;52.678;13.314;2022-07-23T10:50:28;8.32;;;3.53;;
68803;SDS011;55787;52.678;13.314;2022-07-23T10:53:08;8.85;;;3.67;;
68803;SDS011;55787;52.678;13.314;2022-07-23T10:55:41;8.00;;;3.42;;
68803;SDS011;55787;52.678;13.314;2022-07-23T10:58:09;8.95;;;3.10;;
68803;SDS011;55787;52.678;13.314;2022-07-23T11:00:36;7.38;;;3.40;;
68803;SDS011;55787;52.678;13.314;2022-07-23T11:03:28;16.60;;;4.20;;
68803;SDS011;55787;52.678;13.314;2022-07-23T11:05:59;7.95;;;2.85;;
68803;SDS011;55787;52.678;13.314;2022-07-23T11:08:26;8.43;;;2.97;;
68803;SDS011;55787;52.678;13.314;2022-07-23T11:10:54;8.20;;;3.50;;
68803;SDS011;55787;52.678;13.314;2022-07-23T11:13:27;12.97;;;3.60;;
68803;SDS011;55787;52.678;13.314;2022-07-23T11:23:59;8.15;;;3.20;;
68803;SDS011;55787;52.678;13.314;2022-07-23T11:32:22;21.45;;;3.53;;
68803;SDS011;55787;52.678;13.314;2022-07-23T11:34:50;9.48;;;3.03;;
68803;SDS011;55787;52.678;13.314;2022-07-23T11:37:31;7.50;;;2.95;;
68803;SDS011;55787;52.678;13.314;2022-07-23T11:39:58;7.28;;;2.72;;
68803;SDS011;55787;52.678;13.314;2022-07-23T11:42:24;8.70;;;2.80;;
68803;SDS011;55787;52.678;13.314;2022-07-23T11:44:56;8.52;;;2.65;;
68803;SDS011;55787;52.678;13.314;2022-07-23T11:47:23;7.47;;;2.50;;
68803;SDS011;55787;52.678;13.314;2022-07-23T11:49:52;8.90;;;3.05;;
68803;SDS011;55787;52.678;13.314;2022-07-23T11:52:19;13.57;;;3.17;;
68803;SDS011;55787;52.678;13.314;2022-07-23T11:54:54;7.18;;;2.40;;
68803;SDS011;55787;52.678;13.314;2022-07-23T11:57:29;9.90;;;2.80;;
68803;SDS011;55787;52.678;13.314;2022-07-23T11:59:58;11.25;;;2.70;;
68803;SDS011;55787;52.678;13.314;2022-07-23T12:02:32;12.68;;;3.25;;
68803;SDS011;55787;52.678;13.314;2022-07-23T12:04:58;65.40;;;8.43;;
68803;SDS011;55787;52.678;13.314;2022-07-23T12:07:32;8.75;;;3.47;;
68803;SDS011;55787;52.678;13.314;2022-07-23T12:09:59;7.50;;;2.90;;
68803;SDS011;55787;52.678;13.314;2022-07-23T12:12:40;18.17;;;4.65;;
68803;SDS011;55787;52.678;13.314;2022-07-23T12:15:08;6.55;;;3.13;;
68803;SDS011;55787;52.678;13.314;2022-07-23T12:17:37;7.20;;;2.77;;
68803;SDS011;55787;52.678;13.314;2022-07-23T12:20:06;7.20;;;3.13;;
68803;SDS011;55787;52.678;13.314;2022-07-23T12:22:41;6.72;;;2.97;;
68803;SDS011;55787;52.678;13.314;2022-07-23T12:25:11;7.63;;;2.67;;
68803;SDS011;55787;52.678;13.314;2022-07-23T12:27:39;6.93;;;2.72;;
68803;SDS011;55787;52.678;13.314;2022-07-23T12:30:19;8.37;;;3.13;;
68803;SDS011;55787;52.678;13.314;2022-07-23T12:32:54;8.18;;;3.03;;
68803;SDS011;55787;52.678;13.314;2022-07-23T12:35:29;6.40;;;2.55;;
68803;SDS011;55787;52.678;13.314;2022-07-23T12:38:08;7.45;;;3.10;;
68803;SDS011;55787;52.678;13.314;2022-07-23T12:40:43;7.97;;;2.55;;
68803;SDS011;55787;52.678;13.314;2022-07-23T12:45:53;8.70;;;2.50;;
68803;SDS011;55787;52.678;13.314;2022-07-23T12:50:51;6.45;;;2.17;;
68803;SDS011;55787;52.678;13.314;2022-07-23T12:53:25;8.15;;;2.65;;
68803;SDS011;55787;52.678;13.314;2022-07-23T12:56:01;6.10;;;2.43;;
68803;SDS011;55787;52.678;13.314;2022-07-23T13:03:56;6.80;;;2.17;;
68803;SDS011;55787;52.678;13.314;2022-07-23T13:06:26;8.75;;;2.47;;
68803;SDS011;55787;52.678;13.314;2022-07-23T13:08:56;6.20;;;2.27;;
68803;SDS011;55787;52.678;13.314;2022-07-23T13:11:23;6.05;;;2.20;;
68803;SDS011;55787;52.678;13.314;2022-07-23T13:13:50;7.03;;;2.22;;
68803;SDS011;55787;52.678;13.314;2022-07-23T13:16:17;8.65;;;2.20;;
68803;SDS011;55787;52.678;13.314;2022-07-23T13:18:46;6.10;;;1.80;;
68803;SDS011;55787;52.678;13.314;2022-07-23T13:21:14;6.83;;;2.00;;
68803;SDS011;55787;52.678;13.314;2022-07-23T13:23:43;7.45;;;1.98;;
68803;SDS011;55787;52.678;13.314;2022-07-23T13:26:10;6.50;;;2.17;;
68803;SDS011;55787;52.678;13.314;2022-07-23T13:28:36;6.35;;;2.15;;
68803;SDS011;55787;52.678;13.314;2022-07-23T13:31:03;6.72;;;1.83;;
68803;SDS011;55787;52.678;13.314;2022-07-23T13:33:29;9.13;;;2.03;;
68803;SDS011;55787;52.678;13.314;2022-07-23T13:35:56;7.28;;;1.67;;
68803;SDS011;55787;52.678;13.314;2022-07-23T13:38:22;7.45;;;1.90;;
68803;SDS011;55787;52.678;13.314;2022-07-23T13:40:49;11.80;;;2.45;;
68803;SDS011;55787;52.678;13.314;2022-07-23T13:43:18;6.15;;;1.63;;
68803;SDS011;55787;52.678;13.314;2022-07-23T13:45:48;5.80;;;1.90;;
68803;SDS011;55787;52.678;13.314;2022-07-23T13:48:16;9.43;;;1.90;;
68803;SDS011;55787;52.678;13.314;2022-07-23T13:50:45;5.57;;;1.60;;
68803;SDS011;55787;52.678;13.314;2022-07-23T13:53:13;6.18;;;2.00;;
68803;SDS011;55787;52.678;13.314;2022-07-23T13:55:43;6.72;;;1.90;;
68803;SDS011;55787;52.678;13.314;2022-07-23T13:58:14;7.43;;;1.70;;
68803;SDS011;55787;52.678;13.314;2022-07-23T14:00:45;7.68;;;1.85;;
68803;SDS011;55787;52.678;13.314;2022-07-23T14:03:19;6.88;;;1.77;;
68803;SDS011;55787;52.678;13.314;2022-07-23T14:05:49;7.28;;;1.98;;
68803;SDS011;55787;52.678;13.314;2022-07-23T14:08:17;8.15;;;1.65;;
68803;SDS011;55787;52.678;13.314;2022-07-23T14:10:47;7.33;;;1.60;;
68803;SDS011;55787;52.678;13.314;2022-07-23T14:13:14;7.82;;;1.90;;
68803;SDS011;55787;52.678;13.314;2022-07-23T14:15:41;7.00;;;1.85;;
68803;SDS011;55787;52.678;13.314;2022-07-23T14:18:08;7.05;;;1.90;;
68803;SDS011;55787;52.678;13.314;2022-07-23T14:20:35;5.57;;;1.60;;
68803;SDS011;55787;52.678;13.314;2022-07-23T14:23:03;5.13;;;1.40;;
68803;SDS011;55787;52.678;13.314;2022-07-23T14:25:31;5.68;;;1.80;;
68803;SDS011;55787;52.678;13.314;2022-07-23T14:27:58;6.18;;;1.60;;
68803;SDS011;55787;52.678;13.314;2022-07-23T14:30:25;5.38;;;1.50;;
68803;SDS011;55787;52.678;13.314;2022-07-23T14:32:59;6.20;;;1.33;;
68803;SDS011;55787;52.678;13.314;2022-07-23T14:35:26;5.33;;;1.50;;
68803;SDS011;55787;52.678;13.314;2022-07-23T14:37:52;6.63;;;1.60;;
68803;SDS011;55787;52.678;13.314;2022-07-23T14:40:20;6.07;;;1.30;;
68803;SDS011;55787;52.678;13.314;2022-07-23T14:42:48;5.05;;;1.30;;
68803;SDS011;55787;52.678;13.314;2022-07-23T14:45:15;5.05;;;1.30;;
68803;SDS011;55787;52.678;13.314;2022-07-23T14:47:44;5.47;;;1.50;;
68803;SDS011;55787;52.678;13.314;2022-07-23T14:50:12;6.95;;;1.50;;
68803;SDS011;55787;52.678;13.314;2022-07-23T14:52:39;6.40;;;1.60;;
68803;SDS011;55787;52.678;13.314;2022-07-23T14:55:05;5.90;;;1.20;;
68803;SDS011;55787;52.678;13.314;2022-07-23T14:57:33;6.25;;;1.42;;
68803;SDS011;55787;52.678;13.314;2022-07-23T14:59:59;5.23;;;1.40;;
68803;SDS011;55787;52.678;13.314;2022-07-23T15:02:26;5.65;;;1.60;;
68803;SDS011;55787;52.678;13.314;2022-07-23T15:04:53;5.65;;;1.30;;
68803;SDS011;55787;52.678;13.314;2022-07-23T15:07:19;5.10;;;1.20;;
68803;SDS011;55787;52.678;13.314;2022-07-23T15:09:46;5.93;;;1.40;;
68803;SDS011;55787;52.678;13.314;2022-07-23T15:12:13;6.13;;;1.50;;
68803;SDS011;55787;52.678;13.314;2022-07-23T15:14:40;5.28;;;1.38;;
68803;SDS011;55787;52.678;13.314;2022-07-23T15:17:06;6.00;;;1.42;;
68803;SDS011;55787;52.678;13.314;2022-07-23T15:19:33;5.55;;;1.10;;